^^
Saratoga-Weather Station Historical Data
Daily Summary for March 6, 2021 Units:  Metric    English   Both
Daily Weekly Monthly Yearly Custom
  High: Low: Average:
Temperature: 2.9 °C 0.6 °C 2 °C
Dew Point: 2 °C -0.2 °C 1.1 °C
Humidity: 96% 89% 94%
Wind Speed: 6.4km/h 0km/h 1.1km/h
Wind Gust: 6.4km/h - -
Wind- - West
Pressure: 1014.9 hPa 1012.5 hPa -
Precipitation: 3.6 mm    
Historical Graphs
 
 
Tabular Data for March 6, 2021
Time Temperature Dew Point Pressure Wind Wind Speed Wind Gust Humidity Rainfall Rate (Hourly) solar
00:01 2.5 °C 1.2 °C 1012.9 hPa North 3.2 km/h 4.8 km/h 91% 0.0 mm 0 W/m2
00:06 2.5 °C 1.3 °C 1012.9 hPa NW 1.4 km/h 3.2 km/h 92% 0.0 mm 0 W/m2
00:11 2.4 °C 1.2 °C 1012.9 hPa Calm   4.8 km/h 92% 0.0 mm 0 W/m2
00:16 2.4 °C 1.2 °C 1012.9 hPa North 3.2 km/h 3.2 km/h 92% 0.0 mm 0 W/m2
00:21 2.4 °C 1.2 °C 1012.9 hPa NNE 3.2 km/h 4.8 km/h 92% 0.0 mm 0 W/m2
00:26 2.4 °C 1.2 °C 1012.9 hPa Calm   1.6 km/h 92% 0.0 mm 0 W/m2
00:31 2.4 °C 1.2 °C 1012.9 hPa North 1.4 km/h 6.4 km/h 92% 0.0 mm 0 W/m2
00:36 2.3 °C 1.1 °C 1012.9 hPa NE 3.2 km/h 4.8 km/h 92% 0.0 mm 0 W/m2
00:41 2.3 °C 1.1 °C 1012.9 hPa East 1.4 km/h 6.4 km/h 92% 0.0 mm 0 W/m2
00:46 2.3 °C 1.1 °C 1012.9 hPa Calm   1.6 km/h 92% 0.0 mm 0 W/m2
00:51 2.3 °C 1.3 °C 1012.9 hPa WNW 3.2 km/h 6.4 km/h 93% 0.0 mm 0 W/m2
00:56 2.2 °C 1 °C 1012.9 hPa Calm   3.2 km/h 92% 0.0 mm 0 W/m2
01:01 2.2 °C 1.2 °C 1012.9 hPa Calm   1.6 km/h 93% 0.0 mm 0 W/m2
01:06 2.1 °C 1.1 °C 1012.9 hPa NW 1.4 km/h 4.8 km/h 93% 0.2 mm 0 W/m2
01:11 2.1 °C 1.1 °C 1012.5 hPa NW 3.2 km/h 3.2 km/h 93% 0.2 mm 0 W/m2
01:16 2.1 °C 1.1 °C 1012.9 hPa WNW 1.4 km/h 3.2 km/h 93% 0.2 mm 0 W/m2
01:21 2 °C 1 °C 1012.9 hPa NW 3.2 km/h 3.2 km/h 93% 0.2 mm 0 W/m2
01:27 2 °C 1 °C 1012.9 hPa Calm   3.2 km/h 93% 0.2 mm 0 W/m2
01:32 2 °C 1.1 °C 1012.9 hPa West 1.4 km/h 3.2 km/h 94% 0.2 mm 0 W/m2
01:37 2 °C 1.1 °C 1012.5 hPa West 1.4 km/h 1.6 km/h 94% 0.2 mm 0 W/m2
01:42 2 °C 1.1 °C 1012.5 hPa NW 1.4 km/h 4.8 km/h 94% 0.2 mm 0 W/m2
01:47 2.1 °C 1.2 °C 1012.5 hPa North 3.2 km/h 4.8 km/h 94% 0.2 mm 0 W/m2
01:52 2.1 °C 1.2 °C 1012.9 hPa Calm   3.2 km/h 94% 0.2 mm 0 W/m2
01:57 2.1 °C 1.2 °C 1012.9 hPa North 1.4 km/h 3.2 km/h 94% 0.2 mm 0 W/m2
02:02 2.1 °C 1.2 °C 1012.9 hPa Calm     94% 0.2 mm 0 W/m2
02:07 2.1 °C 1.2 °C 1012.9 hPa Calm   3.2 km/h 94% 0.0 mm 0 W/m2
02:12 2.2 °C 1.3 °C 1012.5 hPa NNE 1.4 km/h 3.2 km/h 94% 0.0 mm 0 W/m2
02:17 2.2 °C 1.3 °C 1012.9 hPa ENE 1.4 km/h 3.2 km/h 94% 0.0 mm 0 W/m2
02:22 2.2 °C 1.3 °C 1012.5 hPa NNW 1.4 km/h 6.4 km/h 94% 0.0 mm 0 W/m2
02:27 2.2 °C 1.3 °C 1012.5 hPa SSW 3.2 km/h 3.2 km/h 94% 0.0 mm 0 W/m2
02:32 2.2 °C 1.3 °C 1012.9 hPa NW 1.4 km/h 6.4 km/h 94% 0.0 mm 0 W/m2
02:37 2.2 °C 1.3 °C 1012.9 hPa NW 3.2 km/h 4.8 km/h 94% 0.0 mm 0 W/m2
02:42 2.3 °C 1.4 °C 1012.9 hPa Calm   6.4 km/h 94% 0.0 mm 0 W/m2
02:47 2.3 °C 1.4 °C 1012.9 hPa Calm   1.6 km/h 94% 0.0 mm 0 W/m2
02:52 2.3 °C 1.4 °C 1012.9 hPa NNW 1.4 km/h 3.2 km/h 94% 0.0 mm 0 W/m2
02:57 2.3 °C 1.4 °C 1012.9 hPa Calm     94% 0.0 mm 0 W/m2
03:02 2.3 °C 1.4 °C 1012.9 hPa NNE 1.4 km/h 4.8 km/h 94% 0.0 mm 0 W/m2
03:07 2.3 °C 1.4 °C 1012.9 hPa NNW 1.4 km/h 3.2 km/h 94% 0.0 mm 0 W/m2
03:12 2.3 °C 1.4 °C 1012.9 hPa Calm   1.6 km/h 94% 0.0 mm 0 W/m2
03:17 2.3 °C 1.4 °C 1012.9 hPa Calm   1.6 km/h 94% 0.0 mm 0 W/m2
03:22 2.3 °C 1.3 °C 1012.9 hPa NNW 1.4 km/h 6.4 km/h 93% 0.0 mm 0 W/m2
03:27 2.4 °C 1.4 °C 1012.9 hPa Calm   4.8 km/h 93% 0.0 mm 0 W/m2
03:32 2.4 °C 1.4 °C 1012.9 hPa North 1.4 km/h 4.8 km/h 93% 0.0 mm 0 W/m2
03:37 2.4 °C 1.4 °C 1012.9 hPa Calm   3.2 km/h 93% 0.0 mm 0 W/m2
03:42 2.4 °C 1.4 °C 1012.9 hPa Calm   4.8 km/h 93% 0.0 mm 0 W/m2
03:47 2.4 °C 1.4 °C 1012.9 hPa Calm   1.6 km/h 93% 0.0 mm 0 W/m2
03:52 2.4 °C 1.4 °C 1012.9 hPa North 3.2 km/h 3.2 km/h 93% 0.0 mm 0 W/m2
03:57 2.4 °C 1.4 °C 1012.9 hPa Calm   1.6 km/h 93% 0.0 mm 0 W/m2
04:02 2.4 °C 1.2 °C 1012.9 hPa NNE 1.4 km/h 1.6 km/h 92% 0.0 mm 0 W/m2
04:07 2.4 °C 1.2 °C 1012.9 hPa Calm   3.2 km/h 92% 0.0 mm 0 W/m2
04:12 2.4 °C 1.2 °C 1012.9 hPa North 1.4 km/h 3.2 km/h 92% 0.0 mm 0 W/m2
04:17 2.3 °C 1.1 °C 1012.9 hPa Calm   3.2 km/h 92% 0.0 mm 0 W/m2
04:22 2.3 °C 1.3 °C 1012.9 hPa NNW 1.4 km/h 3.2 km/h 93% 0.2 mm 0 W/m2
04:27 2.2 °C 1 °C 1012.9 hPa Calm   3.2 km/h 92% 0.2 mm 0 W/m2
04:32 2.2 °C 1.2 °C 1012.9 hPa Calm   1.6 km/h 93% 0.2 mm 0 W/m2
04:37 2.1 °C 1.1 °C 1012.9 hPa Calm   3.2 km/h 93% 0.5 mm 0 W/m2
04:42 1.9 °C 0.9 °C 1012.9 hPa Calm     93% 0.5 mm 0 W/m2
04:47 1.8 °C 0.8 °C 1012.9 hPa Calm   1.6 km/h 93% 0.5 mm 0 W/m2
04:52 1.7 °C 0.7 °C 1012.9 hPa Calm   1.6 km/h 93% 0.5 mm 0 W/m2
04:57 1.7 °C 0.7 °C 1012.9 hPa Calm   1.6 km/h 93% 0.5 mm 0 W/m2
05:02 1.6 °C 0.6 °C 1012.9 hPa Calm   1.6 km/h 93% 0.5 mm 0 W/m2
05:07 1.4 °C 0.4 °C 1012.9 hPa NNW 1.4 km/h 3.2 km/h 93% 0.5 mm 0 W/m2
05:12 1.3 °C 0.4 °C 1012.9 hPa Calm   1.6 km/h 94% 0.5 mm 0 W/m2
05:17 1.2 °C 0.3 °C 1012.9 hPa East 1.4 km/h 3.2 km/h 94% 0.5 mm 0 W/m2
05:22 1.1 °C 0.2 °C 1012.9 hPa Calm   1.6 km/h 94% 0.5 mm 0 W/m2
05:27 1 °C 0.1 °C 1012.5 hPa Calm     94% 0.5 mm 0 W/m2
05:32 0.9 °C 0 °C 1012.5 hPa Calm     94% 0.5 mm 0 W/m2
05:37 0.8 °C -0.1 °C 1012.5 hPa NNE 1.4 km/h 3.2 km/h 94% 0.2 mm 0 W/m2
05:42 0.7 °C -0.2 °C 1012.5 hPa Calm     94% 0.2 mm 0 W/m2
05:47 0.7 °C 0 °C 1012.5 hPa East 1.4 km/h 3.2 km/h 95% 0.2 mm 0 W/m2
05:52 0.7 °C 0 °C 1012.5 hPa Calm   1.6 km/h 95% 0.0 mm 0 W/m2
05:57 0.7 °C 0 °C 1012.5 hPa Calm   1.6 km/h 95% 0.0 mm 0 W/m2
06:02 0.7 °C 0 °C 1012.5 hPa Calm     95% 0.0 mm 0 W/m2
06:07 0.6 °C -0.1 °C 1012.5 hPa Calm     95% 0.0 mm 0 W/m2
06:12 0.6 °C -0.1 °C 1012.5 hPa Calm     95% 0.0 mm 0 W/m2
06:17 0.6 °C -0.1 °C 1012.5 hPa Calm     95% 0.0 mm 0 W/m2
06:22 0.6 °C -0.1 °C 1012.5 hPa Calm     95% 0.0 mm 0 W/m2
06:27 0.6 °C -0.1 °C 1012.5 hPa Calm   1.6 km/h 95% 0.0 mm 0 W/m2
06:32 0.6 °C -0.1 °C 1012.5 hPa Calm     95% 0.0 mm 0 W/m2
06:37 0.6 °C -0.1 °C 1012.5 hPa Calm   1.6 km/h 95% 0.0 mm 0 W/m2
06:42 0.6 °C -0.1 °C 1012.5 hPa Calm     95% 0.0 mm 0 W/m2
06:47 0.6 °C -0.1 °C 1012.5 hPa Calm     95% 0.0 mm 0 W/m2
06:52 0.6 °C -0.1 °C 1012.5 hPa Calm     95% 0.0 mm 0 W/m2
06:57 0.6 °C 0 °C 1012.5 hPa Calm     96% 0.2 mm 0 W/m2
07:02 0.6 °C 0 °C 1012.5 hPa Calm     96% 0.2 mm 0 W/m2
07:07 0.7 °C 0.1 °C 1012.5 hPa Calm     96% 0.2 mm 0 W/m2
07:12 0.7 °C 0.1 °C 1012.9 hPa West 1.4 km/h 3.2 km/h 96% 0.2 mm 0 W/m2
07:17 0.7 °C 0.1 °C 1012.5 hPa West 3.2 km/h 6.4 km/h 96% 0.2 mm 0 W/m2
07:22 0.8 °C 0.2 °C 1012.9 hPa Calm   3.2 km/h 96% 0.2 mm 0 W/m2
07:27 0.9 °C 0.3 °C 1012.9 hPa Calm   6.4 km/h 96% 0.2 mm 0 W/m2
07:32 0.9 °C 0.3 °C 1012.9 hPa Calm     96% 0.2 mm 0 W/m2
07:37 0.9 °C 0.3 °C 1012.9 hPa WNW 1.4 km/h 1.6 km/h 96% 0.2 mm 0 W/m2
07:42 0.9 °C 0.3 °C 1012.9 hPa WNW 1.4 km/h 3.2 km/h 96% 0.2 mm 0 W/m2
07:47 0.9 °C 0.3 °C 1012.9 hPa West 1.4 km/h 3.2 km/h 96% 0.2 mm 0 W/m2
07:52 0.9 °C 0.3 °C 1012.9 hPa West 1.4 km/h 3.2 km/h 96% 0.2 mm 0 W/m2
07:57 1 °C 0.4 °C 1012.9 hPa WNW 1.4 km/h 4.8 km/h 96% 0.0 mm 0 W/m2
08:02 1 °C 0.4 °C 1012.9 hPa Calm   3.2 km/h 96% 0.0 mm 0 W/m2
08:07 1.1 °C 0.5 °C 1012.9 hPa WNW 3.2 km/h 3.2 km/h 96% 0.0 mm 0 W/m2
08:12 1.1 °C 0.5 °C 1012.9 hPa West 1.4 km/h 3.2 km/h 96% 0.0 mm 0 W/m2
08:17 1.1 °C 0.5 °C 1012.9 hPa Calm   3.2 km/h 96% 0.0 mm 0 W/m2
08:22 1.1 °C 0.5 °C 1012.9 hPa Calm   1.6 km/h 96% 0.0 mm 0 W/m2
08:27 1.1 °C 0.5 °C 1012.9 hPa Calm     96% 0.0 mm 0 W/m2
08:32 1.1 °C 0.5 °C 1013.2 hPa Calm   1.6 km/h 96% 0.0 mm 0 W/m2
08:37 1.1 °C 0.5 °C 1013.2 hPa Calm   4.8 km/h 96% 0.0 mm 0 W/m2
08:42 1.1 °C 0.5 °C 1013.2 hPa Calm   1.6 km/h 96% 0.2 mm 0 W/m2
08:47 1.1 °C 0.5 °C 1013.2 hPa Calm   3.2 km/h 96% 0.2 mm 0 W/m2
08:52 1.2 °C 0.6 °C 1013.2 hPa Calm   1.6 km/h 96% 0.2 mm 5 W/m2
08:57 1.2 °C 0.6 °C 1013.2 hPa NNW 1.4 km/h 1.6 km/h 96% 0.2 mm 7 W/m2
09:02 1.1 °C 0.5 °C 1013.2 hPa NNW 1.4 km/h 1.6 km/h 96% 0.5 mm 9 W/m2
09:07 1.2 °C 0.6 °C 1013.5 hPa NW 1.4 km/h 1.6 km/h 96% 0.5 mm 12 W/m2
09:12 1.2 °C 0.6 °C 1013.5 hPa Calm     96% 0.5 mm 16 W/m2
09:17 1.2 °C 0.6 °C 1013.5 hPa NW 1.4 km/h 3.2 km/h 96% 0.5 mm 21 W/m2
09:23 1.2 °C 0.6 °C 1013.5 hPa Calm     96% 0.5 mm 21 W/m2
09:28 1.2 °C 0.6 °C 1013.5 hPa NW 1.4 km/h 3.2 km/h 96% 0.5 mm 19 W/m2
09:33 1.2 °C 0.6 °C 1013.5 hPa Calm   1.6 km/h 96% 0.5 mm 21 W/m2
09:38 1.2 °C 0.6 °C 1013.5 hPa Calm   3.2 km/h 96% 0.8 mm 23 W/m2
09:43 1.2 °C 0.6 °C 1013.5 hPa WNW 1.4 km/h 3.2 km/h 96% 0.5 mm 26 W/m2
09:48 1.2 °C 0.6 °C 1013.5 hPa Calm   1.6 km/h 96% 0.5 mm 26 W/m2
09:53 1.2 °C 0.6 °C 1013.5 hPa Calm     96% 0.5 mm 32 W/m2
09:58 1.3 °C 0.7 °C 1013.5 hPa Calm   3.2 km/h 96% 0.8 mm 44 W/m2
10:03 1.3 °C 0.7 °C 1013.5 hPa Calm   1.6 km/h 96% 0.5 mm 49 W/m2
10:08 1.3 °C 0.7 °C 1013.5 hPa Calm   4.8 km/h 96% 0.5 mm 53 W/m2
10:13 1.3 °C 0.7 °C 1013.5 hPa Calm   1.6 km/h 96% 0.8 mm 49 W/m2
10:18 1.3 °C 0.7 °C 1013.5 hPa NE 1.4 km/h 3.2 km/h 96% 0.8 mm 51 W/m2
10:23 1.4 °C 0.8 °C 1013.9 hPa NE 1.4 km/h 1.6 km/h 96% 0.8 mm 46 W/m2
10:28 1.4 °C 0.8 °C 1013.9 hPa Calm     96% 0.8 mm 37 W/m2
10:33 1.4 °C 0.8 °C 1013.9 hPa Calm   4.8 km/h 96% 0.8 mm 32 W/m2
10:38 1.4 °C 0.8 °C 1013.9 hPa ENE 3.2 km/h 3.2 km/h 96% 0.5 mm 37 W/m2
10:43 1.4 °C 0.8 °C 1013.9 hPa Calm   4.8 km/h 96% 0.8 mm 37 W/m2
10:48 1.4 °C 0.8 °C 1013.9 hPa North 1.4 km/h 1.6 km/h 96% 0.8 mm 39 W/m2
10:53 1.4 °C 0.7 °C 1013.9 hPa Calm   4.8 km/h 95% 0.8 mm 33 W/m2
10:58 1.4 °C 0.7 °C 1013.9 hPa West 1.4 km/h 3.2 km/h 95% 0.8 mm 26 W/m2
11:08 1.5 °C 0.9 °C 1013.9 hPa WNW 1.4 km/h 1.6 km/h 96% 0.8 mm 44 W/m2
11:13 1.5 °C 0.9 °C 1013.9 hPa Calm   3.2 km/h 96% 0.5 mm 56 W/m2
11:18 1.6 °C 1 °C 1013.9 hPa WNW 3.2 km/h 3.2 km/h 96% 0.8 mm 76 W/m2
11:23 1.6 °C 1 °C 1013.9 hPa WNW 1.4 km/h 3.2 km/h 96% 0.5 mm 88 W/m2
11:28 1.7 °C 1.1 °C 1013.9 hPa WNW 3.2 km/h 3.2 km/h 96% 0.5 mm 100 W/m2
11:33 1.7 °C 1 °C 1013.9 hPa Calm   3.2 km/h 95% 0.5 mm 105 W/m2
11:38 1.8 °C 1.1 °C 1013.9 hPa WNW 3.2 km/h 3.2 km/h 95% 0.8 mm 123 W/m2
11:43 1.9 °C 1.3 °C 1013.9 hPa West 1.4 km/h 3.2 km/h 96% 0.5 mm 116 W/m2
11:48 1.9 °C 1.2 °C 1013.9 hPa Calm   6.4 km/h 95% 0.5 mm 97 W/m2
11:53 2 °C 1.3 °C 1013.9 hPa WNW 1.4 km/h 4.8 km/h 95% 0.5 mm 113 W/m2
11:58 2.1 °C 1.4 °C 1013.9 hPa WNW 1.4 km/h 3.2 km/h 95% 0.5 mm 116 W/m2
12:03 2.2 °C 1.5 °C 1013.9 hPa WNW 3.2 km/h 3.2 km/h 95% 0.5 mm 137 W/m2
12:08 2.3 °C 1.6 °C 1013.5 hPa WNW 1.4 km/h 4.8 km/h 95% 0.5 mm 165 W/m2
12:13 2.4 °C 1.7 °C 1013.5 hPa WNW 1.4 km/h 3.2 km/h 95% 0.5 mm 142 W/m2
12:18 2.5 °C 1.8 °C 1013.5 hPa WNW 3.2 km/h 4.8 km/h 95% 0.2 mm 141 W/m2
12:23 2.7 °C 2 °C 1013.5 hPa NW 1.4 km/h 4.8 km/h 95% 0.2 mm 95 W/m2
12:28 2.7 °C 1.8 °C 1013.5 hPa NNW 1.4 km/h 3.2 km/h 94% 0.2 mm 76 W/m2
12:33 2.8 °C 1.9 °C 1013.5 hPa NW 1.4 km/h 4.8 km/h 94% 0.2 mm 49 W/m2
12:38 2.8 °C 1.9 °C 1013.5 hPa Calm   3.2 km/h 94% 0.0 mm 46 W/m2
12:43 2.8 °C 1.9 °C 1013.5 hPa NW 1.4 km/h 3.2 km/h 94% 0.0 mm 67 W/m2
12:48 2.8 °C 1.9 °C 1013.5 hPa North 1.4 km/h 3.2 km/h 94% 0.0 mm 76 W/m2
12:53 2.8 °C 1.9 °C 1013.5 hPa North 6.4 km/h 6.4 km/h 94% 0.0 mm 65 W/m2
12:58 2.8 °C 1.9 °C 1013.5 hPa Calm   3.2 km/h 94% 0.0 mm 44 W/m2
13:03 2.9 °C 1.9 °C 1013.2 hPa North 1.4 km/h 3.2 km/h 93% 0.0 mm 35 W/m2
13:08 2.9 °C 2 °C 1013.2 hPa North 3.2 km/h 4.8 km/h 94% 0.0 mm 33 W/m2
13:13 2.9 °C 2 °C 1013.2 hPa NNW 1.4 km/h 6.4 km/h 94% 0.0 mm 37 W/m2
13:18 2.8 °C 1.8 °C 1013.2 hPa Calm   3.2 km/h 93% 0.0 mm 32 W/m2
13:23 2.8 °C 1.8 °C 1013.2 hPa NNE 1.4 km/h 6.4 km/h 93% 0.0 mm 25 W/m2
13:28 2.8 °C 1.8 °C 1013.2 hPa Calm   3.2 km/h 93% 0.0 mm 21 W/m2
13:33 2.8 °C 1.8 °C 1013.2 hPa Calm     93% 0.0 mm 18 W/m2
13:38 2.8 °C 1.8 °C 1013.2 hPa Calm   3.2 km/h 93% 0.0 mm 14 W/m2
13:43 2.7 °C 1.7 °C 1013.2 hPa Calm     93% 0.0 mm 18 W/m2
13:48 2.8 °C 1.8 °C 1013.2 hPa NNE 1.4 km/h 3.2 km/h 93% 0.0 mm 18 W/m2
13:53 2.7 °C 1.7 °C 1013.2 hPa Calm     93% 0.0 mm 23 W/m2
13:58 2.7 °C 1.7 °C 1013.2 hPa Calm   1.6 km/h 93% 0.0 mm 23 W/m2
14:03 2.8 °C 1.8 °C 1013.2 hPa NE 3.2 km/h 3.2 km/h 93% 0.0 mm 39 W/m2
14:08 2.8 °C 1.8 °C 1013.2 hPa Calm   1.6 km/h 93% 0.0 mm 46 W/m2
14:13 2.8 °C 1.8 °C 1013.2 hPa NE 1.4 km/h 1.6 km/h 93% 0.2 mm 42 W/m2
14:18 2.8 °C 1.8 °C 1013.2 hPa NE 1.4 km/h 3.2 km/h 93% 0.2 mm 46 W/m2
14:23 2.7 °C 1.7 °C 1013.2 hPa Calm   1.6 km/h 93% 0.2 mm 46 W/m2
14:28 2.7 °C 1.7 °C 1013.2 hPa Calm   1.6 km/h 93% 0.2 mm 46 W/m2
14:33 2.7 °C 1.7 °C 1013.2 hPa Calm     93% 0.2 mm 35 W/m2
14:38 2.7 °C 1.8 °C 1013.2 hPa Calm     94% 0.2 mm 26 W/m2
14:43 2.7 °C 1.8 °C 1013.2 hPa East 1.4 km/h 1.6 km/h 94% 0.2 mm 28 W/m2
14:48 2.7 °C 1.8 °C 1013.2 hPa Calm   1.6 km/h 94% 0.2 mm 32 W/m2
14:53 2.7 °C 1.8 °C 1013.2 hPa Calm     94% 0.2 mm 37 W/m2
14:58 2.7 °C 1.8 °C 1013.2 hPa WSW 1.4 km/h 4.8 km/h 94% 0.2 mm 30 W/m2
15:03 2.7 °C 1.8 °C 1013.2 hPa Calm     94% 0.2 mm 23 W/m2
15:08 2.7 °C 1.8 °C 1013.2 hPa WSW 3.2 km/h 4.8 km/h 94% 0.2 mm 18 W/m2
15:13 2.7 °C 1.8 °C 1013.2 hPa WNW 1.4 km/h 3.2 km/h 94% 0.0 mm 18 W/m2
15:18 2.8 °C 1.9 °C 1013.2 hPa Calm   4.8 km/h 94% 0.0 mm 14 W/m2
15:23 2.8 °C 1.9 °C 1013.2 hPa WNW 1.4 km/h 3.2 km/h 94% 0.0 mm 12 W/m2
15:28 2.8 °C 1.8 °C 1013.5 hPa Calm   3.2 km/h 93% 0.0 mm 12 W/m2
15:33 2.8 °C 1.8 °C 1013.5 hPa Calm   3.2 km/h 93% 0.0 mm 11 W/m2
15:38 2.8 °C 1.8 °C 1013.5 hPa Calm   1.6 km/h 93% 0.0 mm 11 W/m2
15:43 2.8 °C 1.8 °C 1013.5 hPa Calm   1.6 km/h 93% 0.0 mm 11 W/m2
15:48 2.8 °C 1.6 °C 1013.5 hPa Calm     92% 0.0 mm 9 W/m2
15:53 2.8 °C 1.8 °C 1013.5 hPa Calm     93% 0.0 mm 11 W/m2
15:58 2.8 °C 1.6 °C 1013.5 hPa Calm     92% 0.0 mm 9 W/m2
16:03 2.8 °C 1.8 °C 1013.5 hPa Calm     93% 0.0 mm 9 W/m2
16:08 2.8 °C 1.8 °C 1013.5 hPa Calm   1.6 km/h 93% 0.0 mm 7 W/m2
16:13 2.8 °C 1.8 °C 1013.5 hPa Calm     93% 0.0 mm 5 W/m2
16:18 2.7 °C 1.7 °C 1013.5 hPa Calm   1.6 km/h 93% 0.0 mm 5 W/m2
16:24 2.7 °C 1.7 °C 1013.5 hPa WNW 3.2 km/h 3.2 km/h 93% 0.0 mm 5 W/m2
16:29 2.7 °C 1.7 °C 1013.5 hPa West 3.2 km/h 3.2 km/h 93% 0.0 mm 0 W/m2
16:34 2.7 °C 1.8 °C 1013.5 hPa West 1.4 km/h 3.2 km/h 94% 0.0 mm 0 W/m2
16:39 2.7 °C 1.8 °C 1013.5 hPa WNW 1.4 km/h 3.2 km/h 94% 0.0 mm 0 W/m2
16:44 2.7 °C 1.8 °C 1013.5 hPa WNW 3.2 km/h 4.8 km/h 94% 0.0 mm 0 W/m2
16:49 2.7 °C 1.8 °C 1013.5 hPa West 1.4 km/h 3.2 km/h 94% 0.0 mm 0 W/m2
16:54 2.6 °C 1.7 °C 1013.5 hPa West 3.2 km/h 4.8 km/h 94% 0.0 mm 0 W/m2
16:59 2.6 °C 1.7 °C 1013.5 hPa Calm   3.2 km/h 94% 0.0 mm 0 W/m2
17:04 2.6 °C 1.7 °C 1013.5 hPa West 6.4 km/h 6.4 km/h 94% 0.0 mm 0 W/m2
17:09 2.6 °C 1.7 °C 1013.5 hPa Calm   3.2 km/h 94% 0.0 mm 0 W/m2
17:14 2.6 °C 1.7 °C 1013.9 hPa NW 4.7 km/h 4.8 km/h 94% 0.0 mm 0 W/m2
17:19 2.6 °C 1.7 °C 1013.9 hPa WNW 3.2 km/h 6.4 km/h 94% 0.0 mm 0 W/m2
17:24 2.6 °C 1.7 °C 1013.9 hPa WNW 1.4 km/h 1.6 km/h 94% 0.0 mm 0 W/m2
17:29 2.5 °C 1.6 °C 1013.9 hPa WNW 1.4 km/h 3.2 km/h 94% 0.2 mm 0 W/m2
17:34 2.5 °C 1.6 °C 1013.9 hPa West 1.4 km/h 3.2 km/h 94% 0.2 mm 0 W/m2
17:39 2.4 °C 1.5 °C 1013.9 hPa West 1.4 km/h 3.2 km/h 94% 0.2 mm 0 W/m2
17:44 2.4 °C 1.5 °C 1013.9 hPa West 1.4 km/h 1.6 km/h 94% 0.2 mm 0 W/m2
17:49 2.4 °C 1.5 °C 1013.9 hPa West 1.4 km/h 3.2 km/h 94% 0.2 mm 0 W/m2
17:54 2.3 °C 1.4 °C 1013.9 hPa WSW 4.7 km/h 6.4 km/h 94% 0.2 mm 0 W/m2
17:59 2.3 °C 1.4 °C 1013.9 hPa WSW 3.2 km/h 6.4 km/h 94% 0.2 mm 0 W/m2
18:04 2.3 °C 1.4 °C 1013.9 hPa West 4.7 km/h 6.4 km/h 94% 0.2 mm 0 W/m2
18:09 2.3 °C 1.4 °C 1014.2 hPa West 1.4 km/h 3.2 km/h 94% 0.2 mm 0 W/m2
18:14 2.3 °C 1.4 °C 1014.2 hPa West 1.4 km/h 4.8 km/h 94% 0.2 mm 0 W/m2
18:19 2.3 °C 1.4 °C 1014.2 hPa West 3.2 km/h 6.4 km/h 94% 0.2 mm 0 W/m2
18:24 2.3 °C 1.4 °C 1014.2 hPa WNW 3.2 km/h 3.2 km/h 94% 0.2 mm 0 W/m2
18:29 2.3 °C 1.4 °C 1014.2 hPa WNW 3.2 km/h 6.4 km/h 94% 0.0 mm 0 W/m2
18:34 2.2 °C 1.3 °C 1014.2 hPa Calm   1.6 km/h 94% 0.0 mm 0 W/m2
18:39 2.2 °C 1.3 °C 1014.2 hPa Calm     94% 0.0 mm 0 W/m2
18:44 2.2 °C 1.3 °C 1014.2 hPa West 1.4 km/h 3.2 km/h 94% 0.0 mm 0 W/m2
18:49 2.2 °C 1.3 °C 1014.2 hPa West 1.4 km/h 1.6 km/h 94% 0.0 mm 0 W/m2
18:54 2.2 °C 1.3 °C 1014.2 hPa Calm   1.6 km/h 94% 0.0 mm 0 W/m2
18:59 2.2 °C 1.3 °C 1014.2 hPa Calm   1.6 km/h 94% 0.0 mm 0 W/m2
19:04 2.2 °C 1.3 °C 1014.2 hPa Calm   1.6 km/h 94% 0.0 mm 0 W/m2
19:09 2.1 °C 1.2 °C 1014.6 hPa Calm   1.6 km/h 94% 0.0 mm 0 W/m2
19:14 2.1 °C 1.2 °C 1014.6 hPa Calm     94% 0.0 mm 0 W/m2
19:19 2.1 °C 1.2 °C 1014.6 hPa Calm     94% 0.0 mm 0 W/m2
19:24 2.1 °C 1.2 °C 1014.6 hPa Calm   1.6 km/h 94% 0.0 mm 0 W/m2
19:29 2.1 °C 1.2 °C 1014.6 hPa West 1.4 km/h 3.2 km/h 94% 0.0 mm 0 W/m2
19:34 2.1 °C 1.2 °C 1014.6 hPa West 1.4 km/h 3.2 km/h 94% 0.0 mm 0 W/m2
19:39 2.1 °C 1.2 °C 1014.6 hPa WNW 1.4 km/h 4.8 km/h 94% 0.0 mm 0 W/m2
19:44 2.2 °C 1.3 °C 1014.6 hPa WSW 1.4 km/h 3.2 km/h 94% 0.0 mm 0 W/m2
19:49 2.2 °C 1.3 °C 1014.6 hPa West 3.2 km/h 3.2 km/h 94% 0.0 mm 0 W/m2
19:54 2.2 °C 1.3 °C 1014.6 hPa WNW 1.4 km/h 4.8 km/h 94% 0.0 mm 0 W/m2
19:59 2.2 °C 1.3 °C 1014.6 hPa West 3.2 km/h 4.8 km/h 94% 0.0 mm 0 W/m2
20:04 2.2 °C 1.3 °C 1014.6 hPa West 1.4 km/h 3.2 km/h 94% 0.0 mm 0 W/m2
20:09 2.2 °C 1.3 °C 1014.6 hPa Calm     94% 0.0 mm 0 W/m2
20:14 2.2 °C 1.3 °C 1014.6 hPa West 1.4 km/h 1.6 km/h 94% 0.0 mm 0 W/m2
20:19 2.1 °C 1.2 °C 1014.6 hPa Calm     94% 0.0 mm 0 W/m2
20:24 2.1 °C 1.2 °C 1014.6 hPa Calm     94% 0.0 mm 0 W/m2
20:29 2.1 °C 1.2 °C 1014.6 hPa West 3.2 km/h 4.8 km/h 94% 0.0 mm 0 W/m2
20:34 2 °C 1.1 °C 1014.6 hPa West 1.4 km/h 3.2 km/h 94% 0.0 mm 0 W/m2
20:39 2.1 °C 1.1 °C 1014.6 hPa WSW 3.2 km/h 4.8 km/h 93% 0.0 mm 0 W/m2
20:44 2.1 °C 1.1 °C 1014.6 hPa WSW 1.4 km/h 3.2 km/h 93% 0.0 mm 0 W/m2
20:49 2.1 °C 1.1 °C 1014.6 hPa Calm   3.2 km/h 93% 0.0 mm 0 W/m2
20:54 2 °C 1 °C 1014.6 hPa Calm   1.6 km/h 93% 0.0 mm 0 W/m2
20:59 2 °C 1 °C 1014.6 hPa Calm   1.6 km/h 93% 0.0 mm 0 W/m2
21:04 2 °C 1 °C 1014.6 hPa Calm   1.6 km/h 93% 0.0 mm 0 W/m2
21:09 2 °C 1 °C 1014.6 hPa Calm     93% 0.0 mm 0 W/m2
21:14 1.9 °C 0.9 °C 1014.6 hPa Calm   1.6 km/h 93% 0.0 mm 0 W/m2
21:19 1.9 °C 1 °C 1014.6 hPa Calm     94% 0.0 mm 0 W/m2
21:24 1.9 °C 1 °C 1014.6 hPa Calm   3.2 km/h 94% 0.0 mm 0 W/m2
21:29 1.8 °C 0.9 °C 1014.9 hPa Calm   1.6 km/h 94% 0.0 mm 0 W/m2
21:34 1.8 °C 0.9 °C 1014.6 hPa Calm     94% 0.0 mm 0 W/m2
21:39 1.8 °C 0.9 °C 1014.6 hPa Calm   3.2 km/h 94% 0.0 mm 0 W/m2
21:44 1.7 °C 0.8 °C 1014.6 hPa WSW 1.4 km/h 1.6 km/h 94% 0.0 mm 0 W/m2
21:49 1.7 °C 0.8 °C 1014.6 hPa Calm   3.2 km/h 94% 0.0 mm 0 W/m2
21:54 1.7 °C 0.8 °C 1014.6 hPa WSW 1.4 km/h 3.2 km/h 94% 0.0 mm 0 W/m2
21:59 1.7 °C 0.8 °C 1014.6 hPa WSW 1.4 km/h 3.2 km/h 94% 0.0 mm 0 W/m2
22:04 1.7 °C 0.7 °C 1014.6 hPa WSW 1.4 km/h 3.2 km/h 93% 0.0 mm 0 W/m2
22:09 1.7 °C 0.7 °C 1014.6 hPa SW 1.4 km/h 3.2 km/h 93% 0.0 mm 0 W/m2
22:14 1.8 °C 0.8 °C 1014.6 hPa WSW 3.2 km/h 4.8 km/h 93% 0.0 mm 0 W/m2
22:19 1.8 °C 0.8 °C 1014.6 hPa WSW 1.4 km/h 4.8 km/h 93% 0.0 mm 0 W/m2
22:24 1.8 °C 0.8 °C 1014.6 hPa West 1.4 km/h 3.2 km/h 93% 0.0 mm 0 W/m2
22:29 1.8 °C 0.8 °C 1014.6 hPa West 1.4 km/h 4.8 km/h 93% 0.0 mm 0 W/m2
22:34 1.8 °C 0.6 °C 1014.6 hPa West 1.4 km/h 3.2 km/h 92% 0.0 mm 0 W/m2
22:39 1.7 °C 0.5 °C 1014.6 hPa West 1.4 km/h 1.6 km/h 92% 0.0 mm 0 W/m2
22:44 1.7 °C 0.5 °C 1014.6 hPa West 1.4 km/h 1.6 km/h 92% 0.0 mm 0 W/m2
22:49 1.7 °C 0.5 °C 1014.6 hPa Calm     92% 0.0 mm 0 W/m2
22:54 1.7 °C 0.5 °C 1014.6 hPa SW 1.4 km/h 3.2 km/h 92% 0.0 mm 0 W/m2
22:59 1.7 °C 0.5 °C 1014.6 hPa West 3.2 km/h 4.8 km/h 92% 0.0 mm 0 W/m2
23:04 1.7 °C 0.5 °C 1014.6 hPa West 3.2 km/h 4.8 km/h 92% 0.0 mm 0 W/m2
23:09 1.7 °C 0.5 °C 1014.6 hPa West 1.4 km/h 4.8 km/h 92% 0.0 mm 0 W/m2
23:14 1.7 °C 0.5 °C 1014.6 hPa West 3.2 km/h 3.2 km/h 92% 0.0 mm 0 W/m2
23:19 1.7 °C 0.4 °C 1014.6 hPa WNW 1.4 km/h 3.2 km/h 91% 0.0 mm 0 W/m2
23:24 1.7 °C 0.4 °C 1014.6 hPa WNW 1.4 km/h 3.2 km/h 91% 0.0 mm 0 W/m2
23:29 1.7 °C 0.4 °C 1014.6 hPa West 4.7 km/h 6.4 km/h 91% 0.0 mm 0 W/m2
23:34 1.7 °C 0.2 °C 1014.6 hPa WSW 1.4 km/h 3.2 km/h 90% 0.0 mm 0 W/m2
23:39 1.7 °C 0.2 °C 1014.6 hPa West 1.4 km/h 4.8 km/h 90% 0.0 mm 0 W/m2
23:44 1.7 °C 0.2 °C 1014.6 hPa West 1.4 km/h 4.8 km/h 90% 0.0 mm 0 W/m2
23:49 1.7 °C 0.1 °C 1014.6 hPa West 4.7 km/h 4.8 km/h 89% 0.0 mm 0 W/m2
23:54 1.6 °C 0 °C 1014.6 hPa West 1.4 km/h 4.8 km/h 89% 0.0 mm 0 W/m2
23:59 1.6 °C 0 °C 1014.6 hPa West 1.4 km/h 4.8 km/h 89% 0.0 mm 0 W/m2
Juneau County Weather
Compliments of Weather Underground - 4 mb